createdAt,value
2024-02-19T13:34:55.272Z,3.50
2024-02-19T13:37:28.929Z,3.10
2024-02-19T13:40:01.237Z,2.90
2024-02-19T13:42:34.988Z,3.40
2024-02-19T13:45:10.448Z,3.10
2024-02-19T13:47:42.682Z,3.50
2024-02-19T13:50:15.244Z,3.40
2024-02-19T13:52:47.429Z,3.60
2024-02-19T13:55:20.080Z,3.60
2024-02-19T13:57:53.125Z,5.10
2024-02-19T14:00:26.723Z,3.40
2024-02-19T14:02:59.066Z,5.00
2024-02-19T14:05:33.704Z,3.10
2024-02-19T14:08:09.567Z,4.60
2024-02-19T14:10:42.296Z,3.80
2024-02-19T14:13:14.524Z,3.40
2024-02-19T14:15:47.611Z,3.10
2024-02-19T14:18:20.012Z,3.20
2024-02-19T14:20:52.832Z,3.00
2024-02-19T14:23:25.211Z,3.80
2024-02-19T14:25:58.425Z,3.70
2024-02-19T14:28:30.465Z,3.20
2024-02-19T14:31:04.093Z,3.20
2024-02-19T14:33:36.338Z,3.40
2024-02-19T14:36:16.883Z,3.90
2024-02-19T14:38:58.209Z,3.80
2024-02-19T14:41:34.433Z,4.00
2024-02-19T14:44:13.857Z,4.20
2024-02-19T14:46:54.630Z,4.20
2024-02-19T14:49:38.194Z,5.10
2024-02-19T14:52:21.065Z,4.40
2024-02-19T14:55:32.993Z,4.10
2024-02-19T14:58:14.123Z,4.40
2024-02-19T15:00:55.452Z,5.70
2024-02-19T15:03:34.243Z,4.60
2024-02-19T15:06:14.130Z,4.80
2024-02-19T15:09:00.388Z,4.20
2024-02-19T15:11:38.938Z,5.00
2024-02-19T15:14:19.068Z,3.80
2024-02-19T15:16:58.801Z,5.50
2024-02-19T15:19:36.121Z,4.10
2024-02-19T15:22:20.103Z,3.80
2024-02-19T15:25:41.696Z,3.20
2024-02-19T15:28:42.348Z,3.30
2024-02-19T15:32:07.605Z,3.70
2024-02-19T15:35:13.000Z,4.20
2024-02-19T15:41:06.966Z,5.00
2024-02-19T15:43:59.184Z,5.30
2024-02-19T15:46:39.964Z,4.80
2024-02-19T15:49:19.814Z,4.90
2024-02-19T15:51:56.987Z,5.30
2024-02-19T15:54:47.478Z,5.70
2024-02-19T15:57:47.367Z,5.10
2024-02-19T16:01:02.420Z,5.30
2024-02-19T16:03:48.725Z,5.40
2024-02-19T16:06:41.562Z,5.40
2024-02-19T16:09:52.452Z,5.50
2024-02-19T16:12:54.178Z,6.00
2024-02-19T16:15:45.312Z,6.00
2024-02-19T16:18:47.965Z,7.60
2024-02-19T16:21:26.498Z,9.60
2024-02-19T16:24:35.987Z,8.90
2024-02-19T16:27:20.405Z,8.50
2024-02-19T16:30:17.439Z,8.80
2024-02-19T16:33:09.501Z,8.50
2024-02-19T16:35:49.844Z,6.90
2024-02-19T16:38:43.837Z,7.10
2024-02-19T16:41:36.754Z,7.80
2024-02-19T16:44:59.633Z,8.70
2024-02-19T16:47:50.239Z,9.40
2024-02-19T16:50:34.658Z,8.20
2024-02-19T16:53:36.150Z,9.20
2024-02-19T16:56:25.068Z,9.30
2024-02-19T17:02:24.074Z,8.00
2024-02-19T17:05:08.649Z,7.70
2024-02-19T17:08:39.994Z,8.50
2024-02-19T17:11:29.411Z,8.20
2024-02-19T17:14:05.740Z,8.20
2024-02-19T17:17:17.697Z,9.20
2024-02-19T17:20:13.830Z,9.90
2024-02-19T17:22:57.007Z,13.00
2024-02-19T17:25:42.530Z,17.60
2024-02-19T17:28:24.563Z,18.10
2024-02-19T17:31:14.005Z,14.20
2024-02-19T17:33:53.197Z,13.20
2024-02-19T17:36:29.008Z,10.20
2024-02-19T17:39:10.610Z,9.80
2024-02-19T17:41:43.775Z,11.00
2024-02-19T17:44:22.707Z,12.50
2024-02-19T17:47:04.463Z,13.20
2024-02-19T17:49:46.964Z,12.10
2024-02-19T17:52:19.890Z,12.80
2024-02-19T17:55:00.737Z,14.20
2024-02-19T17:57:36.216Z,14.80
2024-02-19T18:00:14.796Z,15.20
2024-02-19T18:02:49.617Z,14.10
2024-02-19T18:05:39.959Z,13.10
2024-02-19T18:08:18.894Z,13.20
2024-02-19T18:11:17.113Z,14.20
2024-02-19T18:14:24.165Z,13.50
2024-02-19T18:20:23.682Z,18.10
2024-02-19T18:23:19.493Z,19.60
2024-02-19T18:26:03.482Z,17.80
2024-02-19T18:28:38.646Z,22.50
2024-02-19T18:31:14.196Z,20.40
2024-02-19T18:33:51.486Z,21.20
2024-02-19T18:36:28.183Z,16.90
2024-02-19T18:39:08.193Z,14.90
2024-02-19T18:41:58.997Z,17.20
2024-02-19T18:44:52.115Z,20.90
2024-02-19T18:47:43.088Z,17.00
2024-02-19T18:50:23.245Z,17.50
2024-02-19T18:53:27.508Z,15.80
2024-02-19T18:56:06.218Z,18.60
2024-02-19T18:58:46.533Z,19.30
2024-02-19T19:02:02.572Z,12.80
2024-02-19T19:04:54.285Z,13.90
2024-02-19T19:07:34.382Z,12.30
2024-02-19T19:10:10.200Z,13.40
2024-02-19T19:12:44.023Z,13.30
2024-02-19T19:15:17.353Z,13.50
2024-02-19T19:21:54.492Z,12.60
2024-02-19T19:24:28.399Z,14.70
2024-02-19T19:27:08.463Z,13.70
2024-02-19T19:29:43.204Z,15.20
2024-02-19T19:35:11.854Z,16.20
2024-02-19T19:38:52.394Z,20.80
2024-02-19T19:44:33.429Z,20.20
2024-02-19T19:47:06.484Z,20.40
2024-02-19T19:49:38.798Z,16.60
2024-02-19T19:52:11.974Z,17.90
2024-02-19T19:54:45.433Z,17.90
2024-02-19T19:57:17.789Z,20.70
2024-02-19T19:59:52.233Z,18.90
2024-02-19T20:02:26.640Z,19.90
2024-02-19T20:05:00.508Z,19.60
2024-02-19T20:07:32.967Z,19.80
2024-02-19T20:10:07.177Z,18.40
2024-02-19T20:12:39.920Z,21.60
2024-02-19T20:15:16.009Z,20.00
2024-02-19T20:17:48.246Z,20.60
2024-02-19T20:20:21.682Z,19.70
2024-02-19T20:22:53.778Z,21.50
2024-02-19T20:25:26.368Z,22.40
2024-02-19T20:27:59.288Z,22.00
2024-02-19T20:30:34.275Z,21.80
2024-02-19T20:33:08.299Z,22.80
2024-02-19T20:35:41.070Z,25.40
2024-02-19T20:38:13.525Z,27.20
2024-02-19T20:40:45.899Z,26.50
2024-02-19T20:43:18.077Z,24.90
2024-02-19T20:45:51.201Z,27.90
2024-02-19T20:48:24.515Z,23.80
2024-02-19T20:50:57.180Z,20.20
2024-02-19T20:53:29.406Z,20.70
2024-02-19T20:56:01.946Z,23.60
2024-02-19T20:58:37.529Z,25.70
2024-02-19T21:01:09.850Z,26.80
2024-02-19T21:03:45.863Z,27.30
2024-02-19T21:06:21.944Z,26.70
2024-02-19T21:08:54.067Z,26.90
2024-02-19T21:11:27.052Z,27.10
2024-02-19T21:13:59.455Z,28.30
2024-02-19T21:16:32.029Z,30.60
2024-02-19T21:19:06.796Z,30.50
2024-02-19T21:21:39.451Z,29.60
2024-02-19T21:24:12.332Z,30.10
2024-02-19T21:26:44.901Z,32.60
2024-02-19T21:29:17.532Z,30.40
2024-02-19T21:31:50.379Z,32.80
2024-02-19T21:34:23.856Z,32.70
2024-02-19T21:36:58.639Z,34.30
2024-02-19T21:39:31.095Z,30.10
2024-02-19T21:42:04.784Z,34.00
2024-02-19T21:44:37.758Z,33.10
2024-02-19T21:47:11.182Z,33.60
2024-02-19T21:49:43.781Z,33.60
2024-02-19T21:52:16.573Z,31.90
2024-02-19T21:54:49.288Z,35.50
2024-02-19T21:57:22.604Z,33.80
2024-02-19T21:59:55.053Z,33.30
2024-02-19T22:02:28.714Z,31.60
2024-02-19T22:05:01.422Z,33.20
2024-02-19T22:07:34.145Z,34.00
2024-02-19T22:10:08.837Z,34.20
2024-02-19T22:12:41.932Z,33.40
2024-02-19T22:15:14.520Z,35.00
2024-02-19T22:17:47.495Z,32.20
2024-02-19T22:20:19.915Z,31.40
2024-02-19T22:22:52.274Z,32.80
2024-02-19T22:25:24.404Z,33.50
2024-02-19T22:28:01.309Z,34.60
2024-02-19T22:30:34.691Z,31.70
2024-02-19T22:33:07.485Z,33.00
2024-02-19T22:35:40.759Z,31.80
2024-02-19T22:38:13.685Z,30.50
2024-02-19T22:40:46.049Z,33.10
2024-02-19T22:43:18.186Z,34.70
2024-02-19T22:45:51.439Z,34.00
2024-02-19T22:48:23.853Z,33.80
2024-02-19T22:50:56.346Z,32.10
2024-02-19T22:53:28.378Z,35.10
2024-02-19T22:56:00.711Z,27.80
2024-02-19T22:58:35.055Z,31.90
2024-02-19T23:03:39.389Z,31.60
2024-02-19T23:06:11.880Z,31.80
2024-02-19T23:08:43.931Z,33.70
2024-02-19T23:11:16.807Z,29.10
2024-02-19T23:13:48.825Z,29.80
2024-02-19T23:16:20.958Z,30.40
2024-02-19T23:18:54.354Z,28.30
2024-02-19T23:21:26.726Z,30.50
2024-02-19T23:23:58.637Z,30.80
2024-02-19T23:26:30.935Z,28.70
2024-02-19T23:29:02.954Z,27.50
2024-02-19T23:31:35.044Z,28.90
2024-02-19T23:34:07.322Z,28.50
2024-02-19T23:36:41.119Z,29.40
2024-02-19T23:39:13.116Z,28.10
2024-02-19T23:41:45.171Z,26.60
2024-02-19T23:44:17.162Z,29.90
2024-02-19T23:46:50.320Z,27.70
2024-02-19T23:49:24.666Z,26.30
2024-02-19T23:51:57.820Z,31.50
2024-02-19T23:54:31.346Z,27.90
2024-02-19T23:57:04.134Z,30.60
2024-02-19T23:59:36.286Z,30.20
